sensor_id;sensor_type;location;lat;lon;timestamp;P1;durP1;ratioP1;P2;durP2;ratioP2
10565;SDS011;5331;48.148;16.326;2022-08-18T00:00:07;6.15;;;5.65;;
10565;SDS011;5331;48.148;16.326;2022-08-18T00:02:37;5.78;;;5.20;;
10565;SDS011;5331;48.148;16.326;2022-08-18T00:05:06;5.85;;;5.32;;
10565;SDS011;5331;48.148;16.326;2022-08-18T00:07:34;6.18;;;5.57;;
10565;SDS011;5331;48.148;16.326;2022-08-18T00:10:03;5.47;;;5.07;;
10565;SDS011;5331;48.148;16.326;2022-08-18T00:12:32;10.90;;;5.80;;
10565;SDS011;5331;48.148;16.326;2022-08-18T00:15:01;7.45;;;6.13;;
10565;SDS011;5331;48.148;16.326;2022-08-18T00:17:29;7.68;;;6.07;;
10565;SDS011;5331;48.148;16.326;2022-08-18T00:19:56;7.25;;;5.97;;
10565;SDS011;5331;48.148;16.326;2022-08-18T00:22:25;8.18;;;6.18;;
10565;SDS011;5331;48.148;16.326;2022-08-18T00:24:53;6.72;;;6.13;;
10565;SDS011;5331;48.148;16.326;2022-08-18T00:27:22;6.60;;;6.00;;
10565;SDS011;5331;48.148;16.326;2022-08-18T00:29:52;7.05;;;5.95;;
10565;SDS011;5331;48.148;16.326;2022-08-18T00:32:21;6.50;;;5.70;;
10565;SDS011;5331;48.148;16.326;2022-08-18T00:34:50;5.85;;;5.38;;
10565;SDS011;5331;48.148;16.326;2022-08-18T00:37:17;6.43;;;5.93;;
10565;SDS011;5331;48.148;16.326;2022-08-18T00:39:46;6.68;;;6.03;;
10565;SDS011;5331;48.148;16.326;2022-08-18T00:42:16;6.45;;;5.85;;
10565;SDS011;5331;48.148;16.326;2022-08-18T00:44:45;6.03;;;5.40;;
10565;SDS011;5331;48.148;16.326;2022-08-18T00:47:13;5.97;;;5.47;;
10565;SDS011;5331;48.148;16.326;2022-08-18T00:49:40;6.75;;;6.15;;
10565;SDS011;5331;48.148;16.326;2022-08-18T00:52:10;6.38;;;5.80;;
10565;SDS011;5331;48.148;16.326;2022-08-18T00:54:39;6.47;;;5.88;;
10565;SDS011;5331;48.148;16.326;2022-08-18T00:57:10;6.43;;;5.82;;
10565;SDS011;5331;48.148;16.326;2022-08-18T00:59:39;7.03;;;6.00;;
10565;SDS011;5331;48.148;16.326;2022-08-18T01:02:12;6.93;;;5.78;;
10565;SDS011;5331;48.148;16.326;2022-08-18T01:04:44;6.18;;;5.68;;
10565;SDS011;5331;48.148;16.326;2022-08-18T01:07:15;6.22;;;5.72;;
10565;SDS011;5331;48.148;16.326;2022-08-18T01:09:45;5.80;;;5.38;;
10565;SDS011;5331;48.148;16.326;2022-08-18T01:12:14;6.35;;;5.63;;
10565;SDS011;5331;48.148;16.326;2022-08-18T01:14:41;6.43;;;5.93;;
10565;SDS011;5331;48.148;16.326;2022-08-18T01:17:08;6.22;;;5.70;;
10565;SDS011;5331;48.148;16.326;2022-08-18T01:19:52;6.57;;;5.70;;
10565;SDS011;5331;48.148;16.326;2022-08-18T01:22:41;6.07;;;5.57;;
10565;SDS011;5331;48.148;16.326;2022-08-18T01:25:16;6.70;;;6.20;;
10565;SDS011;5331;48.148;16.326;2022-08-18T01:28:04;5.82;;;5.35;;
10565;SDS011;5331;48.148;16.326;2022-08-18T01:30:32;6.72;;;6.13;;
10565;SDS011;5331;48.148;16.326;2022-08-18T01:33:11;6.65;;;6.00;;
10565;SDS011;5331;48.148;16.326;2022-08-18T01:35:38;6.75;;;5.57;;
10565;SDS011;5331;48.148;16.326;2022-08-18T01:38:09;6.15;;;5.65;;
10565;SDS011;5331;48.148;16.326;2022-08-18T01:40:37;7.05;;;5.72;;
10565;SDS011;5331;48.148;16.326;2022-08-18T01:43:04;6.43;;;5.82;;
10565;SDS011;5331;48.148;16.326;2022-08-18T01:45:31;6.18;;;5.65;;
10565;SDS011;5331;48.148;16.326;2022-08-18T01:47:58;6.55;;;5.95;;
10565;SDS011;5331;48.148;16.326;2022-08-18T01:50:25;6.63;;;5.90;;
10565;SDS011;5331;48.148;16.326;2022-08-18T01:52:53;6.60;;;6.07;;
10565;SDS011;5331;48.148;16.326;2022-08-18T01:55:21;6.63;;;6.10;;
10565;SDS011;5331;48.148;16.326;2022-08-18T01:57:52;6.20;;;5.70;;
10565;SDS011;5331;48.148;16.326;2022-08-18T02:00:19;6.60;;;5.95;;
10565;SDS011;5331;48.148;16.326;2022-08-18T02:02:46;6.57;;;5.85;;
10565;SDS011;5331;48.148;16.326;2022-08-18T02:05:15;6.18;;;5.68;;
10565;SDS011;5331;48.148;16.326;2022-08-18T02:07:48;6.97;;;6.22;;
10565;SDS011;5331;48.148;16.326;2022-08-18T02:10:14;6.55;;;6.03;;
10565;SDS011;5331;48.148;16.326;2022-08-18T02:12:43;6.15;;;5.68;;
10565;SDS011;5331;48.148;16.326;2022-08-18T02:15:10;6.10;;;5.60;;
10565;SDS011;5331;48.148;16.326;2022-08-18T02:17:38;6.53;;;5.95;;
10565;SDS011;5331;48.148;16.326;2022-08-18T02:20:06;7.60;;;6.20;;
10565;SDS011;5331;48.148;16.326;2022-08-18T02:22:34;7.75;;;6.38;;
10565;SDS011;5331;48.148;16.326;2022-08-18T02:25:02;7.78;;;6.20;;
10565;SDS011;5331;48.148;16.326;2022-08-18T02:27:30;6.00;;;5.50;;
10565;SDS011;5331;48.148;16.326;2022-08-18T02:29:59;6.45;;;5.93;;
10565;SDS011;5331;48.148;16.326;2022-08-18T02:32:27;6.65;;;6.05;;
10565;SDS011;5331;48.148;16.326;2022-08-18T02:34:54;7.10;;;6.07;;
10565;SDS011;5331;48.148;16.326;2022-08-18T02:37:21;7.07;;;6.38;;
10565;SDS011;5331;48.148;16.326;2022-08-18T02:39:48;5.97;;;5.47;;
10565;SDS011;5331;48.148;16.326;2022-08-18T02:42:15;6.60;;;5.93;;
10565;SDS011;5331;48.148;16.326;2022-08-18T02:44:42;6.53;;;5.88;;
10565;SDS011;5331;48.148;16.326;2022-08-18T02:47:10;6.57;;;5.93;;
10565;SDS011;5331;48.148;16.326;2022-08-18T02:49:37;6.55;;;6.05;;
10565;SDS011;5331;48.148;16.326;2022-08-18T02:52:04;6.57;;;5.97;;
10565;SDS011;5331;48.148;16.326;2022-08-18T02:54:31;6.55;;;5.95;;
10565;SDS011;5331;48.148;16.326;2022-08-18T02:57:04;6.50;;;5.85;;
10565;SDS011;5331;48.148;16.326;2022-08-18T02:59:32;6.45;;;5.90;;
10565;SDS011;5331;48.148;16.326;2022-08-18T03:01:59;7.32;;;6.63;;
10565;SDS011;5331;48.148;16.326;2022-08-18T03:04:28;7.70;;;6.70;;
10565;SDS011;5331;48.148;16.326;2022-08-18T03:06:56;6.97;;;6.38;;
10565;SDS011;5331;48.148;16.326;2022-08-18T03:09:24;6.97;;;6.28;;
10565;SDS011;5331;48.148;16.326;2022-08-18T03:11:52;7.43;;;6.63;;
10565;SDS011;5331;48.148;16.326;2022-08-18T03:14:19;6.68;;;6.07;;
10565;SDS011;5331;48.148;16.326;2022-08-18T03:16:46;6.85;;;6.25;;
10565;SDS011;5331;48.148;16.326;2022-08-18T03:19:14;7.63;;;6.82;;
10565;SDS011;5331;48.148;16.326;2022-08-18T03:21:43;7.20;;;6.45;;
10565;SDS011;5331;48.148;16.326;2022-08-18T03:24:11;7.50;;;6.90;;
10565;SDS011;5331;48.148;16.326;2022-08-18T03:26:39;8.45;;;6.40;;
10565;SDS011;5331;48.148;16.326;2022-08-18T03:29:07;6.82;;;6.20;;
10565;SDS011;5331;48.148;16.326;2022-08-18T03:31:35;6.60;;;6.05;;
10565;SDS011;5331;48.148;16.326;2022-08-18T03:34:03;7.38;;;6.18;;
10565;SDS011;5331;48.148;16.326;2022-08-18T03:36:32;8.10;;;7.05;;
10565;SDS011;5331;48.148;16.326;2022-08-18T03:39:02;6.78;;;6.10;;
10565;SDS011;5331;48.148;16.326;2022-08-18T03:41:30;7.10;;;6.47;;
10565;SDS011;5331;48.148;16.326;2022-08-18T03:43:57;8.20;;;6.38;;
10565;SDS011;5331;48.148;16.326;2022-08-18T03:46:25;7.45;;;6.75;;
10565;SDS011;5331;48.148;16.326;2022-08-18T03:48:54;7.20;;;6.50;;
10565;SDS011;5331;48.148;16.326;2022-08-18T03:51:23;8.20;;;6.65;;
10565;SDS011;5331;48.148;16.326;2022-08-18T03:53:52;7.43;;;6.72;;
10565;SDS011;5331;48.148;16.326;2022-08-18T03:56:25;6.78;;;6.15;;
10565;SDS011;5331;48.148;16.326;2022-08-18T03:58:57;7.15;;;6.45;;
10565;SDS011;5331;48.148;16.326;2022-08-18T04:01:28;7.13;;;6.30;;
10565;SDS011;5331;48.148;16.326;2022-08-18T04:03:58;6.40;;;5.82;;
10565;SDS011;5331;48.148;16.326;2022-08-18T04:06:27;7.47;;;6.80;;
10565;SDS011;5331;48.148;16.326;2022-08-18T04:08:56;7.45;;;6.10;;
10565;SDS011;5331;48.148;16.326;2022-08-18T04:11:26;7.05;;;6.38;;
10565;SDS011;5331;48.148;16.326;2022-08-18T04:13:56;7.57;;;6.63;;
10565;SDS011;5331;48.148;16.326;2022-08-18T04:16:24;6.85;;;6.20;;
10565;SDS011;5331;48.148;16.326;2022-08-18T04:18:51;7.35;;;6.57;;
10565;SDS011;5331;48.148;16.326;2022-08-18T04:21:20;8.93;;;6.80;;
10565;SDS011;5331;48.148;16.326;2022-08-18T04:23:47;7.03;;;6.32;;
10565;SDS011;5331;48.148;16.326;2022-08-18T04:26:14;9.38;;;7.38;;
10565;SDS011;5331;48.148;16.326;2022-08-18T04:28:45;6.97;;;6.30;;
10565;SDS011;5331;48.148;16.326;2022-08-18T04:31:12;9.35;;;7.00;;
10565;SDS011;5331;48.148;16.326;2022-08-18T04:33:42;7.38;;;6.68;;
10565;SDS011;5331;48.148;16.326;2022-08-18T04:36:10;7.47;;;6.78;;
10565;SDS011;5331;48.148;16.326;2022-08-18T04:38:38;6.70;;;6.03;;
10565;SDS011;5331;48.148;16.326;2022-08-18T04:41:06;7.47;;;6.70;;
10565;SDS011;5331;48.148;16.326;2022-08-18T04:43:33;8.25;;;7.32;;
10565;SDS011;5331;48.148;16.326;2022-08-18T04:46:01;8.93;;;7.55;;
10565;SDS011;5331;48.148;16.326;2022-08-18T04:48:29;7.45;;;6.65;;
10565;SDS011;5331;48.148;16.326;2022-08-18T04:51:02;7.30;;;6.60;;
10565;SDS011;5331;48.148;16.326;2022-08-18T04:53:31;6.88;;;6.18;;
10565;SDS011;5331;48.148;16.326;2022-08-18T04:56:14;7.63;;;6.85;;
10565;SDS011;5331;48.148;16.326;2022-08-18T04:58:45;7.55;;;6.80;;
10565;SDS011;5331;48.148;16.326;2022-08-18T05:01:17;8.23;;;7.07;;
10565;SDS011;5331;48.148;16.326;2022-08-18T05:03:46;8.43;;;6.88;;
10565;SDS011;5331;48.148;16.326;2022-08-18T05:06:14;8.73;;;6.55;;
10565;SDS011;5331;48.148;16.326;2022-08-18T05:08:41;7.63;;;6.85;;
10565;SDS011;5331;48.148;16.326;2022-08-18T05:11:08;7.43;;;6.70;;
10565;SDS011;5331;48.148;16.326;2022-08-18T05:13:35;9.80;;;7.00;;
10565;SDS011;5331;48.148;16.326;2022-08-18T05:16:02;10.35;;;7.68;;
10565;SDS011;5331;48.148;16.326;2022-08-18T05:18:32;8.00;;;7.18;;
10565;SDS011;5331;48.148;16.326;2022-08-18T05:21:03;8.77;;;7.45;;
10565;SDS011;5331;48.148;16.326;2022-08-18T05:23:30;9.90;;;7.45;;
10565;SDS011;5331;48.148;16.326;2022-08-18T05:25:57;9.68;;;7.05;;
10565;SDS011;5331;48.148;16.326;2022-08-18T05:28:26;10.15;;;7.70;;
10565;SDS011;5331;48.148;16.326;2022-08-18T05:30:53;8.38;;;7.57;;
10565;SDS011;5331;48.148;16.326;2022-08-18T05:33:21;8.57;;;7.00;;
10565;SDS011;5331;48.148;16.326;2022-08-18T05:35:50;11.63;;;7.43;;
10565;SDS011;5331;48.148;16.326;2022-08-18T05:41:18;8.02;;;7.22;;
10565;SDS011;5331;48.148;16.326;2022-08-18T05:43:51;10.00;;;6.90;;
10565;SDS011;5331;48.148;16.326;2022-08-18T05:46:19;8.02;;;7.22;;
10565;SDS011;5331;48.148;16.326;2022-08-18T05:48:49;7.53;;;6.82;;
10565;SDS011;5331;48.148;16.326;2022-08-18T05:51:18;10.90;;;7.10;;
10565;SDS011;5331;48.148;16.326;2022-08-18T05:53:50;7.15;;;6.40;;
10565;SDS011;5331;48.148;16.326;2022-08-18T05:56:34;7.45;;;6.60;;
10565;SDS011;5331;48.148;16.326;2022-08-18T05:59:13;8.30;;;6.80;;
10565;SDS011;5331;48.148;16.326;2022-08-18T06:01:47;8.13;;;7.40;;
10565;SDS011;5331;48.148;16.326;2022-08-18T06:04:25;9.65;;;7.40;;
10565;SDS011;5331;48.148;16.326;2022-08-18T06:07:00;9.43;;;7.78;;
10565;SDS011;5331;48.148;16.326;2022-08-18T06:09:31;7.97;;;7.15;;
10565;SDS011;5331;48.148;16.326;2022-08-18T06:12:03;7.75;;;7.15;;
10565;SDS011;5331;48.148;16.326;2022-08-18T06:14:36;7.10;;;6.40;;
10565;SDS011;5331;48.148;16.326;2022-08-18T06:17:07;8.60;;;6.78;;
10565;SDS011;5331;48.148;16.326;2022-08-18T06:19:44;9.48;;;7.47;;
10565;SDS011;5331;48.148;16.326;2022-08-18T06:22:20;8.73;;;7.13;;
10565;SDS011;5331;48.148;16.326;2022-08-18T06:24:56;6.95;;;6.43;;
10565;SDS011;5331;48.148;16.326;2022-08-18T06:27:32;7.05;;;6.32;;
10565;SDS011;5331;48.148;16.326;2022-08-18T06:30:07;9.27;;;6.40;;
10565;SDS011;5331;48.148;16.326;2022-08-18T06:32:52;7.22;;;6.40;;
10565;SDS011;5331;48.148;16.326;2022-08-18T06:35:31;6.43;;;5.80;;
10565;SDS011;5331;48.148;16.326;2022-08-18T06:38:08;6.55;;;6.05;;
10565;SDS011;5331;48.148;16.326;2022-08-18T06:41:08;6.28;;;5.68;;
10565;SDS011;5331;48.148;16.326;2022-08-18T06:43:37;8.13;;;6.70;;
10565;SDS011;5331;48.148;16.326;2022-08-18T06:46:10;8.65;;;6.85;;
10565;SDS011;5331;48.148;16.326;2022-08-18T06:48:43;7.18;;;6.50;;
10565;SDS011;5331;48.148;16.326;2022-08-18T06:51:16;7.03;;;6.25;;
10565;SDS011;5331;48.148;16.326;2022-08-18T06:53:50;7.53;;;6.22;;
10565;SDS011;5331;48.148;16.326;2022-08-18T06:56:21;7.63;;;6.28;;
10565;SDS011;5331;48.148;16.326;2022-08-18T06:58:50;9.75;;;6.47;;
10565;SDS011;5331;48.148;16.326;2022-08-18T07:01:19;7.03;;;6.32;;
10565;SDS011;5331;48.148;16.326;2022-08-18T07:03:49;6.63;;;6.03;;
10565;SDS011;5331;48.148;16.326;2022-08-18T07:06:24;9.85;;;6.30;;
10565;SDS011;5331;48.148;16.326;2022-08-18T07:12:00;10.70;;;6.68;;
10565;SDS011;5331;48.148;16.326;2022-08-18T07:14:29;6.80;;;6.20;;
10565;SDS011;5331;48.148;16.326;2022-08-18T07:17:06;7.90;;;7.20;;
10565;SDS011;5331;48.148;16.326;2022-08-18T07:19:34;6.90;;;6.20;;
10565;SDS011;5331;48.148;16.326;2022-08-18T07:22:03;6.43;;;5.93;;
10565;SDS011;5331;48.148;16.326;2022-08-18T07:24:34;6.88;;;6.28;;
10565;SDS011;5331;48.148;16.326;2022-08-18T07:27:05;6.53;;;5.97;;
10565;SDS011;5331;48.148;16.326;2022-08-18T07:29:35;6.00;;;5.50;;
10565;SDS011;5331;48.148;16.326;2022-08-18T07:32:05;7.65;;;6.38;;
10565;SDS011;5331;48.148;16.326;2022-08-18T07:34:39;6.90;;;6.38;;
10565;SDS011;5331;48.148;16.326;2022-08-18T07:37:11;6.78;;;6.28;;
10565;SDS011;5331;48.148;16.326;2022-08-18T07:39:44;6.60;;;6.10;;
10565;SDS011;5331;48.148;16.326;2022-08-18T07:42:16;6.55;;;5.95;;
10565;SDS011;5331;48.148;16.326;2022-08-18T07:44:51;8.43;;;6.15;;
10565;SDS011;5331;48.148;16.326;2022-08-18T07:47:24;9.05;;;6.22;;
10565;SDS011;5331;48.148;16.326;2022-08-18T07:49:57;6.50;;;5.90;;
10565;SDS011;5331;48.148;16.326;2022-08-18T07:52:24;7.13;;;5.50;;
10565;SDS011;5331;48.148;16.326;2022-08-18T07:55:00;6.47;;;5.97;;
10565;SDS011;5331;48.148;16.326;2022-08-18T07:57:37;6.60;;;6.00;;
10565;SDS011;5331;48.148;16.326;2022-08-18T08:00:13;6.20;;;5.80;;
10565;SDS011;5331;48.148;16.326;2022-08-18T08:02:47;6.05;;;5.60;;
10565;SDS011;5331;48.148;16.326;2022-08-18T08:05:28;6.53;;;5.95;;
10565;SDS011;5331;48.148;16.326;2022-08-18T08:08:11;6.43;;;5.93;;
10565;SDS011;5331;48.148;16.326;2022-08-18T08:10:49;6.45;;;5.93;;
10565;SDS011;5331;48.148;16.326;2022-08-18T08:13:29;6.78;;;6.15;;
10565;SDS011;5331;48.148;16.326;2022-08-18T08:16:03;6.65;;;6.15;;
10565;SDS011;5331;48.148;16.326;2022-08-18T08:18:39;6.30;;;5.90;;
10565;SDS011;5331;48.148;16.326;2022-08-18T08:21:13;6.15;;;5.65;;
10565;SDS011;5331;48.148;16.326;2022-08-18T08:23:45;6.53;;;6.03;;
10565;SDS011;5331;48.148;16.326;2022-08-18T08:26:30;6.50;;;6.10;;
10565;SDS011;5331;48.148;16.326;2022-08-18T08:29:09;6.95;;;6.30;;
10565;SDS011;5331;48.148;16.326;2022-08-18T08:31:46;7.18;;;6.50;;
10565;SDS011;5331;48.148;16.326;2022-08-18T08:34:17;6.45;;;5.95;;
10565;SDS011;5331;48.148;16.326;2022-08-18T08:36:47;6.72;;;5.93;;
10565;SDS011;5331;48.148;16.326;2022-08-18T08:39:20;6.20;;;5.68;;
10565;SDS011;5331;48.148;16.326;2022-08-18T08:41:52;9.05;;;5.97;;
10565;SDS011;5331;48.148;16.326;2022-08-18T08:44:24;6.47;;;5.97;;
10565;SDS011;5331;48.148;16.326;2022-08-18T08:46:56;6.25;;;5.75;;
10565;SDS011;5331;48.148;16.326;2022-08-18T08:49:29;7.63;;;5.80;;
10565;SDS011;5331;48.148;16.326;2022-08-18T08:52:04;7.28;;;5.80;;
10565;SDS011;5331;48.148;16.326;2022-08-18T08:54:42;6.07;;;5.63;;
10565;SDS011;5331;48.148;16.326;2022-08-18T08:57:13;6.20;;;5.70;;
10565;SDS011;5331;48.148;16.326;2022-08-18T08:59:43;7.25;;;6.63;;
10565;SDS011;5331;48.148;16.326;2022-08-18T09:05:05;6.63;;;5.90;;
10565;SDS011;5331;48.148;16.326;2022-08-18T09:07:40;6.40;;;5.78;;
10565;SDS011;5331;48.148;16.326;2022-08-18T09:10:22;6.25;;;5.75;;
10565;SDS011;5331;48.148;16.326;2022-08-18T09:13:30;6.28;;;5.68;;
10565;SDS011;5331;48.148;16.326;2022-08-18T09:16:23;5.88;;;5.38;;
10565;SDS011;5331;48.148;16.326;2022-08-18T09:19:09;7.28;;;5.63;;
10565;SDS011;5331;48.148;16.326;2022-08-18T09:22:08;6.65;;;6.03;;
10565;SDS011;5331;48.148;16.326;2022-08-18T09:24:44;7.15;;;6.32;;
10565;SDS011;5331;48.148;16.326;2022-08-18T09:27:14;6.47;;;5.88;;
10565;SDS011;5331;48.148;16.326;2022-08-18T09:29:57;7.70;;;6.47;;
10565;SDS011;5331;48.148;16.326;2022-08-18T09:32:34;6.45;;;5.85;;
10565;SDS011;5331;48.148;16.326;2022-08-18T09:35:19;7.15;;;6.45;;
10565;SDS011;5331;48.148;16.326;2022-08-18T09:38:05;7.35;;;6.05;;
10565;SDS011;5331;48.148;16.326;2022-08-18T09:40:54;7.10;;;6.45;;
10565;SDS011;5331;48.148;16.326;2022-08-18T09:43:52;7.63;;;6.88;;
10565;SDS011;5331;48.148;16.326;2022-08-18T09:46:51;7.82;;;6.82;;
10565;SDS011;5331;48.148;16.326;2022-08-18T09:49:39;10.20;;;7.25;;
10565;SDS011;5331;48.148;16.326;2022-08-18T09:58:12;7.65;;;6.95;;
10565;SDS011;5331;48.148;16.326;2022-08-18T10:00:42;7.80;;;7.00;;
10565;SDS011;5331;48.148;16.326;2022-08-18T10:06:05;8.60;;;6.88;;
10565;SDS011;5331;48.148;16.326;2022-08-18T10:08:57;8.10;;;6.90;;
10565;SDS011;5331;48.148;16.326;2022-08-18T10:11:48;7.80;;;7.10;;
10565;SDS011;5331;48.148;16.326;2022-08-18T10:14:36;7.63;;;6.90;;
10565;SDS011;5331;48.148;16.326;2022-08-18T10:17:38;8.23;;;7.45;;
10565;SDS011;5331;48.148;16.326;2022-08-18T10:20:25;7.65;;;6.95;;
10565;SDS011;5331;48.148;16.326;2022-08-18T10:23:01;8.65;;;7.10;;
10565;SDS011;5331;48.148;16.326;2022-08-18T10:25:33;6.68;;;6.15;;
10565;SDS011;5331;48.148;16.326;2022-08-18T10:28:03;9.50;;;6.93;;
10565;SDS011;5331;48.148;16.326;2022-08-18T10:30:46;7.10;;;6.50;;
10565;SDS011;5331;48.148;16.326;2022-08-18T10:36:34;7.75;;;7.03;;
10565;SDS011;5331;48.148;16.326;2022-08-18T10:39:05;11.70;;;6.95;;
10565;SDS011;5331;48.148;16.326;2022-08-18T10:41:36;7.50;;;6.70;;
10565;SDS011;5331;48.148;16.326;2022-08-18T10:44:12;7.07;;;6.47;;
10565;SDS011;5331;48.148;16.326;2022-08-18T10:46:41;8.07;;;6.50;;
10565;SDS011;5331;48.148;16.326;2022-08-18T10:49:14;8.85;;;6.10;;
10565;SDS011;5331;48.148;16.326;2022-08-18T10:51:51;8.98;;;6.60;;
10565;SDS011;5331;48.148;16.326;2022-08-18T10:54:31;8.65;;;6.13;;
10565;SDS011;5331;48.148;16.326;2022-08-18T10:57:10;8.20;;;6.40;;
10565;SDS011;5331;48.148;16.326;2022-08-18T10:59:42;8.55;;;6.05;;
10565;SDS011;5331;48.148;16.326;2022-08-18T11:02:18;7.45;;;6.28;;
10565;SDS011;5331;48.148;16.326;2022-08-18T11:04:59;9.77;;;6.53;;
10565;SDS011;5331;48.148;16.326;2022-08-18T11:07:32;8.70;;;6.10;;
10565;SDS011;5331;48.148;16.326;2022-08-18T11:10:14;6.45;;;5.80;;
10565;SDS011;5331;48.148;16.326;2022-08-18T11:12:53;7.30;;;5.82;;
10565;SDS011;5331;48.148;16.326;2022-08-18T11:15:30;6.75;;;5.88;;
10565;SDS011;5331;48.148;16.326;2022-08-18T11:18:07;7.07;;;5.72;;
10565;SDS011;5331;48.148;16.326;2022-08-18T11:20:42;6.05;;;5.50;;
10565;SDS011;5331;48.148;16.326;2022-08-18T11:23:12;6.85;;;5.13;;
10565;SDS011;5331;48.148;16.326;2022-08-18T11:25:41;7.03;;;5.25;;
10565;SDS011;5331;48.148;16.326;2022-08-18T11:28:16;5.70;;;5.03;;
10565;SDS011;5331;48.148;16.326;2022-08-18T11:30:44;7.28;;;5.55;;
10565;SDS011;5331;48.148;16.326;2022-08-18T11:33:16;6.90;;;5.55;;
10565;SDS011;5331;48.148;16.326;2022-08-18T11:35:44;9.27;;;5.43;;
10565;SDS011;5331;48.148;16.326;2022-08-18T11:38:15;5.90;;;5.38;;
10565;SDS011;5331;48.148;16.326;2022-08-18T11:40:44;6.95;;;5.40;;
10565;SDS011;5331;48.148;16.326;2022-08-18T11:43:16;7.97;;;4.90;;
10565;SDS011;5331;48.148;16.326;2022-08-18T11:45:50;6.20;;;5.05;;
10565;SDS011;5331;48.148;16.326;2022-08-18T11:48:21;5.20;;;4.70;;
10565;SDS011;5331;48.148;16.326;2022-08-18T11:50:59;4.88;;;4.47;;
10565;SDS011;5331;48.148;16.326;2022-08-18T11:53:37;7.43;;;5.18;;
10565;SDS011;5331;48.148;16.326;2022-08-18T11:56:21;6.60;;;5.05;;
10565;SDS011;5331;48.148;16.326;2022-08-18T11:58:50;6.03;;;4.65;;
10565;SDS011;5331;48.148;16.326;2022-08-18T12:01:30;6.40;;;4.88;;
10565;SDS011;5331;48.148;16.326;2022-08-18T12:04:06;6.57;;;5.05;;
10565;SDS011;5331;48.148;16.326;2022-08-18T12:06:35;6.88;;;4.97;;
10565;SDS011;5331;48.148;16.326;2022-08-18T12:09:07;8.60;;;4.70;;
10565;SDS011;5331;48.148;16.326;2022-08-18T12:11:48;4.97;;;4.50;;
10565;SDS011;5331;48.148;16.326;2022-08-18T12:14:17;5.90;;;4.78;;
10565;SDS011;5331;48.148;16.326;2022-08-18T12:16:46;4.80;;;4.38;;
10565;SDS011;5331;48.148;16.326;2022-08-18T12:19:14;4.85;;;4.20;;
10565;SDS011;5331;48.148;16.326;2022-08-18T12:21:42;4.93;;;4.45;;
10565;SDS011;5331;48.148;16.326;2022-08-18T12:24:16;4.55;;;4.15;;
10565;SDS011;5331;48.148;16.326;2022-08-18T12:26:46;4.43;;;3.90;;
10565;SDS011;5331;48.148;16.326;2022-08-18T12:29:14;4.78;;;3.92;;
10565;SDS011;5331;48.148;16.326;2022-08-18T12:31:42;7.40;;;4.50;;
10565;SDS011;5331;48.148;16.326;2022-08-18T12:34:09;5.25;;;4.20;;
10565;SDS011;5331;48.148;16.326;2022-08-18T12:36:36;6.25;;;4.28;;
10565;SDS011;5331;48.148;16.326;2022-08-18T12:39:03;6.80;;;4.28;;
10565;SDS011;5331;48.148;16.326;2022-08-18T12:41:32;4.57;;;3.80;;
10565;SDS011;5331;48.148;16.326;2022-08-18T12:43:59;5.82;;;4.00;;
10565;SDS011;5331;48.148;16.326;2022-08-18T12:46:26;4.47;;;4.00;;
10565;SDS011;5331;48.148;16.326;2022-08-18T12:48:53;6.50;;;3.55;;
10565;SDS011;5331;48.148;16.326;2022-08-18T12:51:20;4.88;;;4.18;;
10565;SDS011;5331;48.148;16.326;2022-08-18T12:53:47;6.28;;;4.20;;
10565;SDS011;5331;48.148;16.326;2022-08-18T12:56:16;4.05;;;3.65;;
10565;SDS011;5331;48.148;16.326;2022-08-18T12:58:47;4.57;;;3.83;;
10565;SDS011;5331;48.148;16.326;2022-08-18T13:01:14;6.00;;;4.18;;
10565;SDS011;5331;48.148;16.326;2022-08-18T13:03:42;6.35;;;4.20;;
10565;SDS011;5331;48.148;16.326;2022-08-18T13:06:10;5.55;;;4.13;;
10565;SDS011;5331;48.148;16.326;2022-08-18T13:08:38;4.75;;;3.97;;
10565;SDS011;5331;48.148;16.326;2022-08-18T13:11:06;8.15;;;4.55;;
10565;SDS011;5331;48.148;16.326;2022-08-18T13:13:35;5.63;;;4.53;;
10565;SDS011;5331;48.148;16.326;2022-08-18T13:16:03;5.30;;;4.00;;
10565;SDS011;5331;48.148;16.326;2022-08-18T13:18:32;5.45;;;4.20;;
10565;SDS011;5331;48.148;16.326;2022-08-18T13:20:59;4.75;;;3.95;;
10565;SDS011;5331;48.148;16.326;2022-08-18T13:23:27;6.68;;;4.07;;
10565;SDS011;5331;48.148;16.326;2022-08-18T13:25:56;5.97;;;4.20;;
10565;SDS011;5331;48.148;16.326;2022-08-18T13:28:24;4.50;;;4.10;;
10565;SDS011;5331;48.148;16.326;2022-08-18T13:30:51;5.70;;;4.05;;
10565;SDS011;5331;48.148;16.326;2022-08-18T13:33:20;4.47;;;4.00;;
10565;SDS011;5331;48.148;16.326;2022-08-18T13:35:47;5.53;;;4.22;;
10565;SDS011;5331;48.148;16.326;2022-08-18T13:38:14;4.55;;;4.13;;
10565;SDS011;5331;48.148;16.326;2022-08-18T13:40:44;5.25;;;3.70;;
10565;SDS011;5331;48.148;16.326;2022-08-18T13:43:12;5.25;;;3.97;;
10565;SDS011;5331;48.148;16.326;2022-08-18T13:45:40;4.30;;;3.90;;
10565;SDS011;5331;48.148;16.326;2022-08-18T13:48:08;4.15;;;3.70;;
10565;SDS011;5331;48.148;16.326;2022-08-18T13:50:36;5.93;;;4.15;;
10565;SDS011;5331;48.148;16.326;2022-08-18T13:53:05;4.22;;;3.70;;
10565;SDS011;5331;48.148;16.326;2022-08-18T13:55:35;4.07;;;3.78;;
10565;SDS011;5331;48.148;16.326;2022-08-18T13:58:02;5.10;;;3.70;;
10565;SDS011;5331;48.148;16.326;2022-08-18T14:00:29;6.28;;;4.00;;
10565;SDS011;5331;48.148;16.326;2022-08-18T14:02:56;3.95;;;3.65;;
10565;SDS011;5331;48.148;16.326;2022-08-18T14:05:24;4.32;;;3.80;;
10565;SDS011;5331;48.148;16.326;2022-08-18T14:07:53;5.10;;;3.70;;
10565;SDS011;5331;48.148;16.326;2022-08-18T14:10:20;4.85;;;3.47;;
10565;SDS011;5331;48.148;16.326;2022-08-18T14:12:49;5.85;;;4.20;;
10565;SDS011;5331;48.148;16.326;2022-08-18T14:15:17;4.60;;;3.83;;
10565;SDS011;5331;48.148;16.326;2022-08-18T14:17:45;5.13;;;4.10;;
10565;SDS011;5331;48.148;16.326;2022-08-18T14:20:12;4.60;;;4.15;;
10565;SDS011;5331;48.148;16.326;2022-08-18T14:22:58;6.07;;;4.22;;
10565;SDS011;5331;48.148;16.326;2022-08-18T14:25:43;4.60;;;3.95;;
10565;SDS011;5331;48.148;16.326;2022-08-18T14:28:28;5.97;;;3.97;;
10565;SDS011;5331;48.148;16.326;2022-08-18T14:30:55;6.50;;;4.38;;
10565;SDS011;5331;48.148;16.326;2022-08-18T14:33:24;6.30;;;4.13;;
10565;SDS011;5331;48.148;16.326;2022-08-18T14:35:52;5.07;;;4.55;;
10565;SDS011;5331;48.148;16.326;2022-08-18T14:38:21;5.13;;;4.47;;
10565;SDS011;5331;48.148;16.326;2022-08-18T14:40:49;4.93;;;4.50;;
10565;SDS011;5331;48.148;16.326;2022-08-18T14:43:17;5.75;;;4.47;;
10565;SDS011;5331;48.148;16.326;2022-08-18T14:45:46;6.07;;;4.60;;
10565;SDS011;5331;48.148;16.326;2022-08-18T14:48:14;6.10;;;4.38;;
10565;SDS011;5331;48.148;16.326;2022-08-18T14:50:44;7.47;;;4.88;;
10565;SDS011;5331;48.148;16.326;2022-08-18T14:53:14;8.52;;;4.78;;
10565;SDS011;5331;48.148;16.326;2022-08-18T14:55:45;8.13;;;4.60;;
10565;SDS011;5331;48.148;16.326;2022-08-18T14:58:15;6.18;;;4.30;;
10565;SDS011;5331;48.148;16.326;2022-08-18T15:00:43;7.70;;;4.25;;
10565;SDS011;5331;48.148;16.326;2022-08-18T15:03:10;6.20;;;4.18;;
10565;SDS011;5331;48.148;16.326;2022-08-18T15:05:37;5.82;;;4.40;;
10565;SDS011;5331;48.148;16.326;2022-08-18T15:08:03;6.35;;;3.80;;
10565;SDS011;5331;48.148;16.326;2022-08-18T15:10:31;5.13;;;4.00;;
10565;SDS011;5331;48.148;16.326;2022-08-18T15:12:59;4.97;;;4.32;;
10565;SDS011;5331;48.148;16.326;2022-08-18T15:15:26;4.78;;;4.15;;
10565;SDS011;5331;48.148;16.326;2022-08-18T15:17:55;4.45;;;4.05;;
10565;SDS011;5331;48.148;16.326;2022-08-18T15:20:22;4.32;;;4.03;;
10565;SDS011;5331;48.148;16.326;2022-08-18T15:22:50;4.47;;;4.07;;
10565;SDS011;5331;48.148;16.326;2022-08-18T15:25:35;4.15;;;3.75;;
10565;SDS011;5331;48.148;16.326;2022-08-18T15:28:10;4.63;;;4.03;;
10565;SDS011;5331;48.148;16.326;2022-08-18T15:30:37;5.40;;;4.22;;
10565;SDS011;5331;48.148;16.326;2022-08-18T15:33:04;4.47;;;4.07;;
10565;SDS011;5331;48.148;16.326;2022-08-18T15:35:31;5.53;;;3.80;;